Terminal Aerodrome Forecast
Issued by NWS

Home | Current Version | Previous Version | Text Only | Print | Product List | Glossary On
Versions: 1 2 3 4 5 6 7 8 9 10 11 12
571
FTUS45 KTFX 170520
TAFHVR
TAF
KHVR 170520Z 1706/1806 23016KT P6SM SCT200
     FM172000 25022G30KT P6SM SCT100 BKN150=

USA.gov is the U.S. government's official web portal to all federal, state and local government web resources and services.